Time;durP1;ratioP1;P1;durP2;ratioP2;P2;SDS_P1;SDS_P2;PMS_P1;PMS_P2;Temp;Humidity;BMP_temperature;BMP_pressure;BME280_temperature;BME280_humidity;BME280_pressure;Samples;Min_cycle;Max_cycle;Signal;HPM_P1;HPM_P2
2024/03/11 00:02:21;;;;;;;;;28.25;26.50;;;;;21.99;38.99;99884.78;6304170;22;46966;-79
2024/03/11 00:04:47;;;;;;;;;27.50;24.50;;;;;22.04;38.99;99889.50;6304693;22;45274;-80
2024/03/11 00:07:15;;;;;;;;;26.50;24.50;;;;;22.03;38.83;99904.56;6304521;22;45221;-80
2024/03/11 00:09:48;;;;;;;;;26.00;22.50;;;;;22.03;38.47;99893.16;6304603;22;45385;-80
2024/03/11 00:12:17;;;;;;;;;28.00;25.25;;;;;22.02;38.91;99902.91;6304487;22;47356;-80
2024/03/11 00:14:47;;;;;;;;;25.00;24.00;;;;;22.00;38.41;99909.44;6304058;22;45260;-80
2024/03/11 00:17:13;;;;;;;;;26.75;25.25;;;;;22.03;38.89;99912.50;6305034;22;45238;-80
2024/03/11 00:19:39;;;;;;;;;25.00;24.25;;;;;21.97;38.81;99902.72;6304638;22;45447;-80
2024/03/11 00:22:04;;;;;;;;;28.25;24.00;;;;;22.01;38.25;99911.91;6304862;22;46049;-80
2024/03/11 00:24:30;;;;;;;;;26.00;23.00;;;;;22.03;38.58;99916.97;6305145;22;45218;-80
2024/03/11 00:26:56;;;;;;;;;26.75;23.75;;;;;21.95;38.46;99910.06;6304940;22;45241;-80
2024/03/11 00:29:21;;;;;;;;;22.50;21.50;;;;;22.00;38.36;99926.16;6304621;22;45428;-79
2024/03/11 00:31:48;;;;;;;;;25.50;24.25;;;;;22.02;38.37;99926.75;6304879;22;45863;-80
2024/03/11 00:34:17;;;;;;;;;26.50;25.50;;;;;22.02;38.67;99931.22;6304626;22;45335;-80
2024/03/11 00:36:42;;;;;;;;;26.25;24.00;;;;;22.02;38.91;99929.41;6304616;22;45379;-80
2024/03/11 00:39:15;;;;;;;;;30.00;25.25;;;;;22.03;38.93;99932.88;6304977;22;45426;-77
2024/03/11 00:41:40;;;;;;;;;25.25;20.50;;;;;22.02;38.98;99940.00;6304622;22;46372;-81
2024/03/11 00:44:06;;;;;;;;;26.75;25.50;;;;;22.01;38.80;99941.03;6304437;22;45322;-78
2024/03/11 00:46:31;;;;;;;;;28.00;25.00;;;;;22.02;38.52;99947.13;6304712;22;45329;-80
2024/03/11 00:48:58;;;;;;;;;21.00;17.50;;;;;22.02;39.08;99952.44;6305065;22;45280;-80
2024/03/11 00:51:24;;;;;;;;;25.75;24.50;;;;;22.02;39.00;99952.44;6304745;22;45297;-80
2024/03/11 00:53:50;;;;;;;;;26.00;22.75;;;;;22.01;38.59;99948.97;6304427;22;45312;-80
2024/03/11 00:56:16;;;;;;;;;24.75;22.50;;;;;22.02;39.08;99955.06;6304655;22;45209;-80
2024/03/11 00:58:42;;;;;;;;;25.25;21.00;;;;;22.01;38.57;99951.63;6304193;22;45596;-79
2024/03/11 01:01:09;;;;;;;;;23.25;21.50;;;;;21.91;39.20;99933.47;6304715;22;46071;-80
2024/03/11 01:03:35;;;;;;;;;26.00;24.50;;;;;21.99;38.86;99955.50;6305077;22;45340;-80
2024/03/11 01:06:00;;;;;;;;;28.75;26.25;;;;;21.92;38.64;99942.22;6304456;22;45324;-80
2024/03/11 01:08:29;;;;;;;;;28.25;25.00;;;;;21.90;38.79;99950.38;6304865;22;45322;-79
2024/03/11 01:10:55;;;;;;;;;22.75;19.25;;;;;21.99;38.65;99961.59;6304305;22;47139;-80
2024/03/11 01:13:21;;;;;;;;;25.00;23.25;;;;;21.94;38.86;99956.06;6303775;22;45425;-79
2024/03/11 01:15:47;;;;;;;;;23.00;22.00;;;;;21.99;39.11;99955.50;6304519;22;45289;-79
2024/03/11 01:18:14;;;;;;;;;28.25;22.25;;;;;22.00;38.56;99970.34;6304591;22;45185;-80
2024/03/11 01:20:40;;;;;;;;;26.00;22.75;;;;;21.97;39.20;99963.63;6304104;22;47072;-80
2024/03/11 01:23:06;;;;;;;;;17.00;15.50;;;;;21.98;38.87;99965.28;6304707;22;45246;-80
2024/03/11 01:25:32;;;;;;;;;22.00;22.00;;;;;21.95;38.68;99961.19;6305467;22;45564;-80
2024/03/11 01:27:57;;;;;;;;;20.50;19.00;;;;;21.97;39.06;99963.63;6305311;22;45245;-79
2024/03/11 01:30:24;;;;;;;;;26.50;25.25;;;;;21.91;39.05;99944.06;6304832;22;46043;-79
2024/03/11 01:32:49;;;;;;;;;24.25;24.00;;;;;21.99;39.11;99958.16;6304786;22;45185;-80
2024/03/11 01:35:15;;;;;;;;;24.25;22.00;;;;;21.98;38.66;99954.69;6304955;22;45226;-80
2024/03/11 01:37:43;;;;;;;;;26.75;22.25;;;;;21.98;38.69;99961.81;6304354;22;45295;-80
2024/03/11 01:40:10;;;;;;;;;27.75;24.50;;;;;21.98;39.26;99956.50;6304265;22;46236;-79
2024/03/11 01:42:35;;;;;;;;;22.00;19.25;;;;;21.98;38.63;99954.69;6304305;22;45360;-80
2024/03/11 01:45:02;;;;;;;;;24.25;20.75;;;;;21.98;38.88;99945.91;6304776;22;45297;-79
2024/03/11 01:47:28;;;;;;;;;24.00;23.00;;;;;21.88;38.98;99935.72;6304428;22;45361;-79
2024/03/11 01:49:59;;;;;;;;;26.00;24.50;;;;;21.96;38.80;99941.63;6304341;22;45268;-78
2024/03/11 01:52:30;;;;;;;;;22.75;22.75;;;;;21.96;39.01;99948.78;6303994;22;45248;-80
2024/03/11 01:54:56;;;;;;;;;26.75;21.75;;;;;21.96;38.67;99949.56;6304309;22;45343;-80
2024/03/11 01:57:24;;;;;;;;;32.50;22.25;;;;;21.95;39.03;99941.84;6303666;22;45372;-80
2024/03/11 01:59:51;;;;;;;;;26.00;21.25;;;;;21.97;39.03;99950.38;6304479;22;46332;-80
2024/03/11 02:02:20;;;;;;;;;24.75;23.25;;;;;21.98;38.56;99956.50;6304055;22;45266;-79
2024/03/11 02:04:46;;;;;;;;;25.25;24.25;;;;;21.92;38.64;99947.53;6304603;22;45352;-80
2024/03/11 02:07:14;;;;;;;;;23.25;23.00;;;;;21.98;38.79;99961.81;6304035;22;45202;-80
2024/03/11 02:09:43;;;;;;;;;27.75;23.75;;;;;21.98;38.26;99961.81;6304291;22;45452;-80
2024/03/11 02:12:17;;;;;;;;;26.50;22.50;;;;;21.98;38.59;99961.81;6303601;22;45224;-80
2024/03/11 02:14:43;;;;;;;;;30.50;28.00;;;;;21.96;38.62;99964.66;6303965;22;45313;-80
2024/03/11 02:17:09;;;;;;;;;24.25;21.25;;;;;21.98;38.73;99972.41;6303772;22;45245;-80
2024/03/11 02:19:34;;;;;;;;;25.00;24.00;;;;;21.99;39.15;99963.44;6304293;22;45268;-79
2024/03/11 02:22:02;;;;;;;;;23.75;19.75;;;;;21.82;38.72;99939.94;6304413;22;45235;-80
2024/03/11 02:24:28;;;;;;;;;24.25;18.75;;;;;21.97;39.09;99963.63;6304326;22;45264;-80
2024/03/11 02:26:53;;;;;;;;;24.25;22.50;;;;;21.96;38.93;99965.47;6303919;22;45450;-80
2024/03/11 02:29:18;;;;;;;;;22.00;20.00;;;;;21.96;39.16;99973.41;6303667;22;47100;-78
2024/03/11 02:31:44;;;;;;;;;20.75;19.00;;;;;21.92;38.88;99958.13;6303727;22;45269;-80
2024/03/11 02:34:10;;;;;;;;;26.75;22.75;;;;;21.89;38.79;99964.63;6304472;22;45235;-78
2024/03/11 02:36:36;;;;;;;;;19.75;18.25;;;;;21.85;38.71;99952.78;6303850;22;45400;-80
2024/03/11 02:39:05;;;;;;;;;23.75;23.25;;;;;21.93;38.89;99971.19;6303983;22;46788;-80
2024/03/11 02:41:32;;;;;;;;;22.75;21.00;;;;;21.85;38.83;99956.25;6304660;22;45359;-79
2024/03/11 02:43:57;;;;;;;;;24.25;21.25;;;;;21.95;39.17;99971.78;6305524;22;45318;-78
2024/03/11 02:46:22;;;;;;;;;20.75;20.00;;;;;21.95;39.14;99970.97;6305518;22;45675;-80
2024/03/11 02:48:48;;;;;;;;;22.25;21.25;;;;;21.92;38.85;99966.06;6303332;22;47162;-80
2024/03/11 02:51:13;;;;;;;;;24.75;20.00;;;;;21.92;38.69;99964.25;6305533;22;45345;-80
2024/03/11 02:53:39;;;;;;;;;24.00;22.25;;;;;21.94;39.10;99969.31;6305301;22;45283;-80
2024/03/11 02:56:08;;;;;;;;;21.00;19.50;;;;;21.95;39.20;99970.97;6304846;22;45290;-78
2024/03/11 02:58:38;;;;;;;;;20.00;18.25;;;;;21.84;38.98;99943.22;6304924;22;46458;-80
2024/03/11 03:01:03;;;;;;;;;18.25;17.25;;;;;21.93;38.95;99973.00;6304774;22;45225;-80
2024/03/11 03:03:29;;;;;;;;;26.50;24.00;;;;;21.84;38.82;99956.44;6303601;22;45236;-79
2024/03/11 03:05:54;;;;;;;;;23.25;22.75;;;;;21.91;38.96;99969.75;6305489;22;45418;-80
2024/03/11 03:08:20;;;;;;;;;24.00;20.00;;;;;21.93;39.30;99970.34;6304872;22;45945;-79
2024/03/11 03:10:45;;;;;;;;;19.25;18.50;;;;;21.89;38.99;99983.16;6304831;22;45309;-80
2024/03/11 03:13:11;;;;;;;;;19.25;19.25;;;;;21.93;38.36;99981.78;6305237;22;45320;-80
2024/03/11 03:15:36;;;;;;;;;21.75;17.50;;;;;21.93;38.51;99988.91;6305578;22;45425;-80
2024/03/11 03:18:01;;;;;;;;;18.50;17.25;;;;;21.91;38.91;99986.44;6305512;22;46142;-80
2024/03/11 03:20:27;;;;;;;;;24.00;20.75;;;;;21.94;38.34;99991.34;6305354;22;45178;-80
2024/03/11 03:22:52;;;;;;;;;18.75;18.75;;;;;21.94;38.58;100006.41;6305560;22;45179;-79
2024/03/11 03:25:17;;;;;;;;;23.25;20.25;;;;;21.90;38.99;99995.41;6302980;22;45250;-79
2024/03/11 03:27:43;;;;;;;;;20.75;19.00;;;;;21.94;38.90;100006.41;6304803;22;46017;-81
2024/03/11 03:30:08;;;;;;;;;23.50;20.75;;;;;21.93;38.45;100002.97;6305196;22;45324;-78
2024/03/11 03:32:34;;;;;;;;;17.50;15.00;;;;;21.94;39.02;100003.75;6304943;22;45332;-80
2024/03/11 03:35:00;;;;;;;;;21.00;19.25;;;;;21.82;38.80;99987.59;6305529;22;45447;-80
2024/03/11 03:37:25;;;;;;;;;23.00;21.50;;;;;21.94;39.03;99999.28;6304948;22;46089;-80
2024/03/11 03:39:50;;;;;;;;;23.25;21.75;;;;;21.87;38.80;99997.59;6304577;22;45237;-80
2024/03/11 03:42:16;;;;;;;;;20.75;19.00;;;;;21.92;39.14;99997.84;6302849;22;45215;-80
2024/03/11 03:44:42;;;;;;;;;18.00;17.50;;;;;21.93;38.95;100004.78;6305436;22;45223;-79
2024/03/11 03:47:07;;;;;;;;;17.50;16.00;;;;;21.92;39.24;100001.31;6305095;22;46244;-80
2024/03/11 03:49:33;;;;;;;;;20.00;18.75;;;;;21.93;39.05;100004.78;6304478;22;45352;-80
2024/03/11 03:51:59;;;;;;;;;19.75;17.75;;;;;21.93;39.19;100002.13;6305493;22;45419;-80
2024/03/11 03:54:27;;;;;;;;;21.50;17.75;;;;;21.92;39.12;100001.31;6304327;22;45490;-80
2024/03/11 03:56:52;;;;;;;;;18.00;15.75;;;;;21.84;38.57;99997.00;6304577;22;47093;-80
2024/03/11 03:59:18;;;;;;;;;17.25;15.50;;;;;21.92;38.65;100000.50;6305102;22;45250;-80
2024/03/11 04:01:43;;;;;;;;;20.50;19.25;;;;;21.85;38.96;99993.34;6305431;22;45283;-78
2024/03/11 04:04:09;;;;;;;;;26.25;18.50;;;;;21.85;38.69;99995.16;6305396;22;45184;-80
2024/03/11 04:06:34;;;;;;;;;15.75;13.50;;;;;21.88;39.14;100008.03;6304460;22;46273;-79
2024/03/11 04:09:00;;;;;;;;;23.75;21.00;;;;;21.88;39.22;100015.16;6304535;22;45226;-80
2024/03/11 04:11:26;;;;;;;;;17.00;16.00;;;;;21.91;38.82;100023.50;6305197;22;45386;-78
2024/03/11 04:13:52;;;;;;;;;19.00;17.75;;;;;21.92;39.03;100021.69;6304697;22;45273;-79
2024/03/11 04:16:17;;;;;;;;;20.50;19.75;;;;;21.91;38.67;100028.81;6304442;22;46203;-80
2024/03/11 04:18:43;;;;;;;;;20.00;16.00;;;;;21.91;38.86;100028.00;6304895;22;45285;-79
2024/03/11 04:21:09;;;;;;;;;17.50;16.75;;;;;21.91;39.09;100035.97;6304924;22;45256;-79
2024/03/11 04:23:34;;;;;;;;;17.00;15.25;;;;;21.82;38.80;100022.03;6305891;22;45193;-78
2024/03/11 04:26:01;;;;;;;;;17.00;15.50;;;;;21.90;39.30;100040.44;6305421;22;46028;-79
2024/03/11 04:28:29;;;;;;;;;20.00;17.00;;;;;21.79;39.15;100014.47;6306364;22;45327;-79
2024/03/11 04:30:55;;;;;;;;;19.50;15.75;;;;;21.85;38.88;100019.00;6304789;22;45201;-80
2024/03/11 04:33:21;;;;;;;;;14.50;14.50;;;;;21.90;38.64;100034.31;6305113;22;45375;-80
2024/03/11 04:35:49;;;;;;;;;18.50;18.00;;;;;21.89;38.96;100030.84;6304263;22;46060;-79
2024/03/11 04:38:15;;;;;;;;;20.75;17.75;;;;;21.82;38.42;100028.16;6304481;22;45264;-79
2024/03/11 04:40:43;;;;;;;;;15.25;14.75;;;;;21.88;39.09;100036.34;6305406;22;45293;-79
2024/03/11 04:43:10;;;;;;;;;15.50;15.00;;;;;21.88;39.10;100039.81;6304409;22;45443;-80
2024/03/11 04:45:40;;;;;;;;;14.75;14.25;;;;;21.89;38.61;100038.78;6304357;22;47447;-79
2024/03/11 04:48:07;;;;;;;;;22.25;16.75;;;;;21.59;38.72;99992.22;6305076;22;45279;-79
2024/03/11 04:50:33;;;;;;;;;18.00;17.25;;;;;21.89;39.04;100046.72;6302392;22;45240;-79
2024/03/11 04:53:06;;;;;;;;;17.00;16.50;;;;;21.90;38.77;100050.19;6305035;22;45198;-79
2024/03/11 04:55:33;;;;;;;;;20.00;15.00;;;;;21.90;39.10;100055.50;6304664;22;46238;-80
2024/03/11 04:57:59;;;;;;;;;17.00;14.25;;;;;21.89;38.99;100057.31;6304797;22;45261;-80
2024/03/11 05:00:27;;;;;;;;;18.00;15.50;;;;;21.89;39.02;100059.97;6304954;22;45182;-80
2024/03/11 05:02:59;;;;;;;;;19.75;18.50;;;;;21.89;38.36;100064.44;6303923;22;45487;-80
2024/03/11 05:05:25;;;;;;;;;14.25;14.00;;;;;21.91;38.89;100073.03;6303770;22;47107;-79
2024/03/11 05:07:51;;;;;;;;;12.75;12.75;;;;;21.78;38.68;100047.28;6304318;22;45311;-80
2024/03/11 05:10:16;;;;;;;;;15.00;15.00;;;;;21.90;38.74;100069.56;6305001;22;45334;-80
2024/03/11 05:12:43;;;;;;;;;18.75;18.00;;;;;21.82;38.63;100054.63;6304764;22;45259;-80
2024/03/11 05:15:13;;;;;;;;;15.75;15.00;;;;;21.86;38.71;100070.91;6304276;22;46990;-79
2024/03/11 05:17:39;;;;;;;;;14.75;12.75;;;;;21.89;38.72;100075.84;6304124;22;45228;-80
2024/03/11 05:20:14;;;;;;;;;16.50;13.00;;;;;21.89;39.01;100069.75;6304263;22;45168;-79
2024/03/11 05:22:42;;;;;;;;;14.75;14.75;;;;;21.89;38.68;100075.03;6304994;22;45444;-80
2024/03/11 05:25:08;;;;;;;;;15.00;14.75;;;;;21.88;38.63;100082.19;6304121;22;46153;-80
2024/03/11 05:27:36;;;;;;;;;14.00;13.00;;;;;21.89;39.02;100082.97;6304237;22;45366;-80
2024/03/11 05:30:01;;;;;;;;;15.50;13.25;;;;;21.86;38.95;100076.22;6304651;22;45416;-80
2024/03/11 05:32:27;;;;;;;;;17.00;14.25;;;;;21.88;38.97;100084.84;6304321;22;45518;-79
2024/03/11 05:34:52;;;;;;;;;14.00;13.75;;;;;21.88;38.84;100090.13;6304325;22;45338;-79
2024/03/11 05:37:20;;;;;;;;;15.00;13.25;;;;;21.88;38.72;100086.66;6304843;22;45198;-79
2024/03/11 05:39:46;;;;;;;;;14.50;13.50;;;;;21.87;39.23;100091.13;6304542;22;45316;-79
2024/03/11 05:42:12;;;;;;;;;11.50;9.75;;;;;21.87;39.00;100095.56;6304678;22;45206;-80
2024/03/11 05:44:38;;;;;;;;;14.50;14.00;;;;;21.86;38.96;100097.41;6304035;22;45287;-80
2024/03/11 05:47:04;;;;;;;;;3.50;3.50;;;;;21.69;39.26;100068.63;6304077;22;45331;-80
2024/03/11 05:49:32;;;;;;;;;14.75;13.75;;;;;21.85;38.69;100098.44;6303802;22;45331;-79
2024/03/11 05:51:57;;;;;;;;;14.75;13.75;;;;;21.84;38.66;100096.78;6304242;22;45440;-80
2024/03/11 05:54:24;;;;;;;;;17.25;15.00;;;;;21.85;39.04;100096.63;6304072;22;46009;-79
2024/03/11 05:56:59;;;;;;;;;14.00;13.00;;;;;21.77;39.24;100091.47;6304059;22;45277;-79
2024/03/11 05:59:25;;;;;;;;;12.75;12.00;;;;;21.84;39.25;100110.84;6304236;22;45233;-80
2024/03/11 06:01:51;;;;;;;;;13.50;13.00;;;;;21.84;38.66;100105.56;6304325;22;45509;-79
2024/03/11 06:04:18;;;;;;;;;13.00;13.00;;;;;21.77;39.18;100101.25;6303543;22;46278;-80
2024/03/11 06:06:47;;;;;;;;;14.25;13.00;;;;;21.85;38.56;100117.78;6303910;22;45252;-80
2024/03/11 06:09:14;;;;;;;;;15.25;12.75;;;;;21.83;38.52;100111.84;6304383;22;45208;-80
2024/03/11 06:11:49;;;;;;;;;12.75;12.75;;;;;21.82;38.88;100112.88;6304135;22;45455;-80
2024/03/11 06:14:15;;;;;;;;;11.50;7.50;;;;;21.84;38.41;100115.31;6303490;22;47176;-80
2024/03/11 06:16:47;;;;;;;;;15.25;14.25;;;;;21.87;38.55;100116.75;6306040;22;45288;-79
2024/03/11 06:19:17;;;;;;;;;16.00;13.00;;;;;21.87;39.03;100124.72;6303956;22;45188;-81
2024/03/11 06:21:43;;;;;;;;;17.50;13.75;;;;;21.87;38.91;100124.72;6303871;22;45290;-80
2024/03/11 06:24:12;;;;;;;;;12.00;12.00;;;;;21.88;38.93;100131.69;6304272;22;45312;-80
2024/03/11 06:26:37;;;;;;;;;15.75;14.25;;;;;21.85;39.07;100117.78;6304101;22;45277;-81
2024/03/11 06:29:03;;;;;;;;;12.00;10.50;;;;;21.88;38.52;100132.50;6304183;22;45221;-83
2024/03/11 06:31:29;;;;;;;;;13.00;12.50;;;;;21.88;38.46;100123.75;6303824;22;45399;-85
2024/03/11 06:33:55;;;;;;;;;14.00;13.25;;;;;21.85;38.50;100136.34;6303850;22;45198;-82
2024/03/11 06:36:21;;;;;;;;;11.50;11.00;;;;;21.78;38.49;100138.09;6303499;22;45285;-80
2024/03/11 06:38:48;;;;;;;;;11.00;11.00;;;;;21.85;39.40;100141.63;6303097;22;45241;-80
2024/03/11 06:41:17;;;;;;;;;13.00;11.00;;;;;21.87;39.17;100149.41;6303173;22;45463;-81
2024/03/11 06:43:44;;;;;;;;;14.00;13.25;;;;;21.87;39.44;100151.19;6302242;22;47124;-80
2024/03/11 06:46:10;;;;;;;;;11.75;11.75;;;;;21.71;39.55;100134.63;6302477;22;45216;-76
2024/03/11 06:48:36;;;;;;;;;15.25;11.25;;;;;21.88;39.64;100160.81;6303491;22;45337;-79
2024/03/11 06:51:01;;;;;;;;;15.00;15.00;;;;;21.88;39.63;100166.94;6303841;22;45292;-77
2024/03/11 06:53:26;;;;;;;;;13.75;12.00;;;;;21.81;39.64;100153.59;6303921;22;45271;-76
2024/03/11 06:55:52;;;;;;;;;13.75;12.50;;;;;21.88;39.79;100166.13;6303924;22;45311;-76
2024/03/11 06:58:18;;;;;;;;;12.75;11.25;;;;;21.83;39.46;100166.66;6303878;22;45374;-76
2024/03/11 07:00:43;;;;;;;;;12.50;12.50;;;;;21.90;39.71;100169.38;6303327;22;45624;-78
2024/03/11 07:03:09;;;;;;;;;6.00;6.00;;;;;21.89;39.29;100168.56;6303451;22;47118;-84
2024/03/11 07:05:35;;;;;;;;;12.25;10.75;;;;;21.91;39.16;100171.03;6304048;22;45312;-82
2024/03/11 07:08:06;;;;;;;;;11.00;11.00;;;;;21.91;39.67;100173.66;6303651;22;45275;-76
2024/03/11 07:10:32;;;;;;;;;11.25;11.25;;;;;21.91;39.74;100176.31;6303363;22;45278;-75
2024/03/11 07:12:58;;;;;;;;;17.75;12.25;;;;;21.91;39.09;100176.31;6303792;22;45657;-74
2024/03/11 07:15:24;;;;;;;;;11.50;11.00;;;;;21.92;39.14;100180.59;6302808;22;45343;-75
2024/03/11 07:17:50;;;;;;;;;13.25;10.50;;;;;21.92;39.13;100181.41;6303658;22;45458;-76
2024/03/11 07:20:17;;;;;;;;;10.75;10.75;;;;;21.93;39.59;100177.75;6303246;22;45422;-75
2024/03/11 07:22:47;;;;;;;;;10.25;10.00;;;;;21.93;39.50;100184.88;6303866;22;45944;-76
2024/03/11 07:25:15;;;;;;;;;11.75;11.00;;;;;21.94;39.44;100191.78;6303854;22;45343;-72
2024/03/11 07:27:42;;;;;;;;;9.75;9.00;;;;;21.94;39.10;100184.66;6304612;22;45250;-75
2024/03/11 07:30:09;;;;;;;;;9.00;9.00;;;;;21.95;39.37;100196.91;6304190;22;45434;-75
2024/03/11 07:32:35;;;;;;;;;11.50;9.75;;;;;21.96;39.71;100210.97;6304643;22;47168;-74
2024/03/11 07:35:02;;;;;;;;;9.25;9.25;;;;;21.94;39.51;100197.09;6304932;22;45295;-74
2024/03/11 07:37:27;;;;;;;;;12.50;12.25;;;;;21.96;39.55;100209.13;6305001;22;45251;-74
2024/03/11 07:39:53;;;;;;;;;11.25;10.00;;;;;21.95;39.51;100211.97;6305238;22;45399;-74
2024/03/11 07:42:22;;;;;;;;;11.00;10.75;;;;;21.91;39.32;100200.16;6305144;22;45403;-74
2024/03/11 07:44:48;;;;;;;;;9.50;9.25;;;;;21.95;39.43;100212.81;6304440;22;45261;-74
2024/03/11 07:47:14;;;;;;;;;10.50;9.50;;;;;21.95;39.76;100210.16;6305102;22;45208;-74
2024/03/11 07:49:39;;;;;;;;;15.25;13.75;;;;;21.93;39.26;100212.19;6304786;22;45365;-74
2024/03/11 07:52:06;;;;;;;;;12.00;10.50;;;;;21.96;39.21;100213.63;6304639;22;46142;-74
2024/03/11 07:54:32;;;;;;;;;11.00;8.75;;;;;21.93;39.69;100211.38;6304661;22;45271;-74
2024/03/11 07:56:57;;;;;;;;;12.50;10.50;;;;;21.96;39.73;100221.56;6304740;22;45514;-74
2024/03/11 07:59:23;;;;;;;;;9.75;9.00;;;;;21.94;39.56;100219.09;6302740;22;45360;-74
2024/03/11 08:01:48;;;;;;;;;10.25;9.50;;;;;21.95;39.62;100228.69;6305137;22;46410;-74
2024/03/11 08:04:14;;;;;;;;;11.25;11.00;;;;;21.95;39.59;100227.88;6304692;22;45355;-74
2024/03/11 08:06:39;;;;;;;;;10.67;9.00;;;;;21.94;39.20;100221.75;6305264;22;45308;-74
2024/03/11 08:09:07;;;;;;;;;14.50;9.50;;;;;21.94;39.35;100240.28;6305343;22;45368;-74
2024/03/11 08:11:34;;;;;;;;;12.25;11.00;;;;;21.92;39.14;100234.38;6304618;22;46077;-75
2024/03/11 08:14:02;;;;;;;;;15.75;12.25;;;;;21.90;39.60;100235.59;6304213;22;45224;-75
2024/03/11 08:16:28;;;;;;;;;10.75;10.75;;;;;21.93;39.74;100243.16;6304532;22;45287;-74
2024/03/11 08:18:53;;;;;;;;;11.33;10.00;;;;;21.94;39.34;100250.06;6304661;22;45308;-74
2024/03/11 08:21:20;;;;;;;;;10.67;9.67;;;;;21.94;39.32;100256.19;6304953;22;45263;-74
2024/03/11 08:23:45;;;;;;;;;12.00;10.75;;;;;21.94;39.79;100258.84;6304936;22;45316;-75
2024/03/11 08:26:11;;;;;;;;;12.00;9.00;;;;;21.94;39.25;100263.31;6305082;22;45277;-75
2024/03/11 08:28:38;;;;;;;;;8.75;7.25;;;;;21.94;39.40;100268.59;6304369;22;45388;-74
2024/03/11 08:31:07;;;;;;;;;9.00;9.00;;;;;21.94;39.21;100269.44;6304277;22;46527;-74
2024/03/11 08:33:35;;;;;;;;;10.00;9.00;;;;;21.93;39.74;100267.81;6304477;22;45387;-74
2024/03/11 08:36:05;;;;;;;;;9.00;8.00;;;;;21.93;39.21;100278.41;6304030;22;45330;-74
2024/03/11 08:38:32;;;;;;;;;9.33;8.00;;;;;21.93;39.28;100272.28;6304838;22;45426;-75
2024/03/11 08:40:58;;;;;;;;;10.00;10.00;;;;;21.93;39.37;100277.56;6304461;22;47139;-74
2024/03/11 08:43:24;;;;;;;;;11.00;8.50;;;;;21.93;39.67;100286.34;6303967;22;45253;-75
2024/03/11 08:45:49;;;;;;;;;8.00;8.00;;;;;21.93;39.37;100275.75;6305070;22;45225;-74
2024/03/11 08:48:14;;;;;;;;;9.00;9.00;;;;;21.92;39.33;100287.34;6304830;22;45438;-74
2024/03/11 08:50:40;;;;;;;;;8.75;7.75;;;;;21.92;39.33;100282.06;6304818;22;45260;-74
2024/03/11 08:53:08;;;;;;;;;10.00;8.25;;;;;21.92;39.82;100287.34;6304475;22;45291;-75
2024/03/11 08:55:34;;;;;;;;;5.00;4.00;;;;;21.91;39.43;100290.19;6304619;22;45343;-74
2024/03/11 08:58:05;;;;;;;;;8.50;8.50;;;;;21.92;39.51;100292.66;6304065;22;45411;-74
2024/03/11 09:00:31;;;;;;;;;9.25;9.25;;;;;21.95;39.44;100302.03;6304307;22;46864;-75
2024/03/11 09:02:57;;;;;;;;;10.75;8.75;;;;;21.95;39.30;100299.38;6304531;22;45324;-74
2024/03/11 09:05:23;;;;;;;;;10.67;9.33;;;;;21.96;39.25;100306.34;6304799;22;45346;-75
2024/03/11 09:07:50;;;;;;;;;6.25;6.25;;;;;21.77;39.54;100274.19;6304853;22;45448;-75
2024/03/11 09:10:17;;;;;;;;;7.67;7.67;;;;;21.97;39.46;100313.25;6304669;22;45324;-75
2024/03/11 09:12:45;;;;;;;;;7.67;7.67;;;;;21.92;39.59;100300.59;6303935;22;45327;-75
2024/03/11 09:15:18;;;;;;;;;10.25;9.50;;;;;21.98;39.66;100311.44;6304882;22;45468;-75
2024/03/11 09:17:46;;;;;;;;;10.00;9.00;;;;;21.96;39.83;100317.72;6304325;22;45423;-74
2024/03/11 09:20:15;;;;;;;;;10.00;8.00;;;;;21.98;39.19;100317.53;6304242;22;46248;-74
2024/03/11 09:22:45;;;;;;;;;10.50;8.75;;;;;21.98;39.41;100317.53;6304173;22;45407;-74
2024/03/11 09:25:13;;;;;;;;;11.00;8.25;;;;;21.99;39.50;100327.13;6304328;22;45242;-75
2024/03/11 09:27:38;;;;;;;;;9.67;6.33;;;;;21.99;39.31;100323.66;6304046;22;45485;-74
2024/03/11 09:30:05;;;;;;;;;7.00;7.00;;;;;21.92;39.38;100320.94;6304503;22;46013;-74
2024/03/11 09:32:30;;;;;;;;;9.75;9.75;;;;;21.98;39.62;100333.44;6304675;22;45227;-75
2024/03/11 09:34:58;;;;;;;;;9.00;7.00;;;;;21.96;39.90;100333.63;6304794;22;45267;-74
2024/03/11 09:37:24;;;;;;;;;10.00;9.00;;;;;21.94;39.77;100333.00;6304318;22;45369;-74
2024/03/11 09:39:49;;;;;;;;;8.75;7.25;;;;;21.97;39.24;100339.75;6303996;22;46883;-75
2024/03/11 09:42:18;;;;;;;;;10.67;9.33;;;;;21.97;39.36;100334.44;6303809;22;45546;-74
2024/03/11 09:44:44;;;;;;;;;11.00;9.00;;;;;21.96;39.36;100333.63;6304710;22;45319;-75
2024/03/11 09:47:10;;;;;;;;;8.33;8.33;;;;;21.98;39.83;100336.09;6303978;22;45503;-75
2024/03/11 09:49:35;;;;;;;;;8.50;8.50;;;;;21.98;39.88;100341.38;6303896;22;47295;-74
2024/03/11 09:52:01;;;;;;;;;10.00;7.75;;;;;21.92;39.47;100337.66;6304707;22;45497;-74
2024/03/11 09:54:28;;;;;;;;;9.67;8.67;;;;;21.92;39.35;100337.66;6304719;22;45280;-74
2024/03/11 09:56:55;;;;;;;;;7.00;7.00;;;;;21.98;39.31;100343.22;6303816;22;45269;-74
2024/03/11 09:59:24;;;;;;;;;7.00;7.00;;;;;21.98;39.85;100351.97;6303880;22;47099;-74
2024/03/11 10:01:54;;;;;;;;;12.50;9.50;;;;;21.98;39.81;100351.97;6304363;22;45225;-74
2024/03/11 10:04:23;;;;;;;;;8.50;7.75;;;;;21.98;39.58;100351.97;6304730;22;45327;-75
2024/03/11 10:07:08;;;;;;;;;8.50;8.50;;;;;22.00;39.46;100360.56;6304629;22;45388;-74
2024/03/11 10:09:46;;;;;;;;;7.00;7.00;;;;;21.95;39.60;100358.47;6303408;22;47144;-73
2024/03/11 10:12:15;;;;;;;;;8.00;7.00;;;;;21.99;39.86;100363.41;6304646;22;45387;-74
2024/03/11 10:14:42;;;;;;;;;6.00;6.00;;;;;21.99;39.56;100368.69;6304040;22;45440;-73
2024/03/11 10:17:19;;;;;;;;;9.75;9.50;;;;;21.99;39.35;100381.94;6304006;22;45443;-73
2024/03/11 10:19:47;;;;;;;;;10.00;9.00;;;;;22.00;39.49;100378.28;6303851;22;46904;-74
2024/03/11 10:22:21;;;;;;;;;11.00;8.67;;;;;21.94;39.82;100364.78;6303887;22;45307;-73
2024/03/11 10:24:47;;;;;;;;;8.33;7.00;;;;;21.93;39.90;100364.97;6303501;22;45304;-73
2024/03/11 10:27:33;;;;;;;;;8.00;8.00;;;;;21.99;39.79;100372.16;6303995;22;45428;-74
2024/03/11 10:30:19;;;;;;;;;8.50;8.50;;;;;22.00;39.53;100378.28;6303781;22;47105;-73
2024/03/11 10:32:45;;;;;;;;;7.67;7.67;;;;;21.98;39.85;100370.53;6303843;22;45427;-73
2024/03/11 10:35:11;;;;;;;;;8.33;8.33;;;;;22.00;39.47;100378.28;6303996;22;45319;-73
2024/03/11 10:37:37;;;;;;;;;9.67;8.00;;;;;21.99;39.37;100368.69;6303865;22;45509;-73
2024/03/11 10:40:10;;;;;;;;;9.00;7.00;;;;;21.94;39.45;100364.78;6303329;22;46083;-73
2024/03/11 10:42:37;;;;;;;;;7.67;7.00;;;;;22.00;39.92;100380.91;6303776;22;45318;-74
2024/03/11 10:45:05;;;;;;;;;9.00;9.00;;;;;21.99;39.85;100376.66;6303797;22;45291;-73
2024/03/11 10:47:31;;;;;;;;;6.00;5.75;;;;;21.99;39.54;100392.53;6304314;22;45619;-74
2024/03/11 10:50:01;;;;;;;;;7.67;7.67;;;;;21.98;39.48;100388.25;6303880;22;45310;-74
2024/03/11 10:52:33;;;;;;;;;8.00;6.50;;;;;21.99;39.55;100395.19;6304065;22;45217;-74
2024/03/11 10:54:59;;;;;;;;;11.00;7.00;;;;;21.98;39.45;100389.06;6303254;22;45325;-74
2024/03/11 10:57:47;;;;;;;;;7.67;7.67;;;;;21.91;40.07;100386.34;6303640;22;45476;-73
2024/03/11 11:02:44;;;;;;;;;7.67;6.33;;;;;21.99;40.15;100403.13;6305443;22;45364;-74
2024/03/11 11:05:12;;;;;;;;;8.00;7.67;;;;;21.98;40.07;100401.50;6305157;22;45209;-74
2024/03/11 11:07:39;;;;;;;;;8.75;6.50;;;;;21.98;39.78;100406.78;6305339;22;45398;-74
2024/03/11 11:10:07;;;;;;;;;6.00;6.00;;;;;21.99;39.68;100405.78;6304871;22;46271;-74
2024/03/11 11:12:36;;;;;;;;;7.00;6.00;;;;;21.99;39.55;100413.72;6304827;22;45495;-74
2024/03/11 11:15:07;;;;;;;;;9.00;8.00;;;;;21.94;39.77;100407.16;6305315;22;45335;-74
2024/03/11 11:17:38;;;;;;;;;9.33;8.33;;;;;21.98;40.19;100420.84;6305151;22;45279;-74
2024/03/11 11:22:57;;;;;;;;;10.75;8.00;;;;;21.93;39.74;100423.25;6304833;22;45268;-73